METAR Data
IDs: Format: Raw Decoded Include TAF

Data at: 0250 UTC 23 Apr 2021

YGEL 230230Z AUTO 01005KT 9999 // NCD 28/08 Q1017 RF00.0/000.0
YGEL 230200Z AUTO 04005KT 9999 // NCD 26/09 Q1018
YGEL 230130Z AUTO 04008KT 9999 // NCD 23/10 Q1018 RF00.0/000.0
YGEL 230100Z AUTO 04008KT 9999 // NCD 21/10 Q1018
YGEL 230030Z AUTO 05007KT 9999 // NCD 20/11 Q1018 RF00.0/000.0
YGEL 230000Z AUTO 07005KT 9999 // NCD 19/12 Q1018
YGEL 222330Z AUTO 07007KT 9999 // NCD 18/12 Q1017 RF00.0/000.0
YGEL 222300Z AUTO 05007KT 9999 // NCD 17/13 Q1017
YGEL 222230Z AUTO 04006KT 9999 // NCD 17/13 Q1017 RF00.0/000.0
YGEL 222200Z AUTO 04007KT 9999 // NCD 16/13 Q1017
YGEL 222130Z AUTO 03008KT 9999 // NCD 17/14 Q1017 RF00.0/000.0
YGEL 222100Z AUTO 02006KT 9999 // NCD 18/14 Q1017
YGEL 222030Z AUTO 04007KT 9999 // NCD 18/15 Q1016 RF00.0/000.0
YGEL 222000Z AUTO 04007KT 9999 // NCD 18/16 Q1016
YGEL 221930Z AUTO 07006KT 9999 // NCD 17/16 Q1017 RF00.0/000.0
YGEL 221900Z AUTO 05005KT 9999 // NCD 18/16 Q1017
YGEL 221830Z AUTO 05005KT 9999 // NCD 18/16 Q1017 RF00.0/000.0
YGEL 221800Z AUTO 07002KT 9999 // NCD 18/16 Q1017
YGEL 221730Z AUTO 00000KT 9999 // NCD 17/15 Q1017 RF00.0/000.0
YGEL 221700Z AUTO 12004KT 9999 // NCD 18/15 Q1017
YGEL 221630Z AUTO 16003KT 9999 // NCD 18/15 Q1018 RF00.0/000.0
YGEL 221600Z AUTO 17002KT 9999 // NCD 18/15 Q1018
YGEL 221530Z AUTO 00000KT 9999 // NCD 18/15 Q1018 RF00.0/000.0
YGEL 221500Z AUTO 00000KT 9999 // NCD 19/16 Q1018
YGEL 221430Z AUTO 11004KT 9999 // NCD 19/15 Q1018 RF00.0/000.0
YGEL 221400Z AUTO 10004KT 9999 // NCD 18/15 Q1019
YGEL 221330Z AUTO 11004KT 9999 // NCD 19/15 Q1019 RF00.0/000.0
YGEL 221300Z AUTO 15005KT 9999 // NCD 20/16 Q1019
YGEL 221230Z AUTO 17005KT 9999 // NCD 20/16 Q1019 RF00.0/000.0
YGEL 221200Z AUTO 18005KT 9999 // NCD 21/15 Q1019
YGEL 221130Z AUTO 17004KT 9999 // NCD 21/15 Q1018 RF00.0/000.0
YGEL 221100Z AUTO 16006KT 9999 // NCD 22/15 Q1018
YGEL 221030Z AUTO 15008KT 9999 // NCD 23/15 Q1017 RF00.0/000.0
YGEL 221000Z AUTO 16007KT 9999 // NCD 23/15 Q1017
YGEL 220930Z AUTO 18007KT 9999 // NCD 25/13 Q1017 RF00.0/000.0
YGEL 220900Z AUTO 18007KT 9999 // NCD 26/12 Q1017
YGEL 220830Z AUTO 17009KT 9999 // NCD 26/12 Q1017 RF00.0/000.0
YGEL 220800Z AUTO 18009KT 9999 // NCD 26/13 Q1017
YGEL 220730Z AUTO 21011KT 9999 // NCD 27/14 Q1017 RF00.0/000.0
YGEL 220700Z AUTO 23010KT 9999 // NCD 28/12 Q1017
YGEL 220630Z AUTO 30005KT 270V350 9999 // NCD 31/02 Q1017 RF00.0/000.0
YGEL 220600Z AUTO 27005KT 210V300 9999 // NCD 31/02 Q1017
YGEL 220530Z AUTO 29007KT 9999 // NCD 31/02 Q1017 RF00.0/000.0
YGEL 220500Z AUTO 02005KT 9999 // NCD 30/03 Q1017
YGEL 220430Z AUTO 36007KT 9999 // NCD 30/04 Q1018 RF00.0/000.0
YGEL 220400Z AUTO 02009KT 9999 // NCD 29/06 Q1018
YGEL 220330Z AUTO 03012KT 9999 // NCD 30/07 Q1019 RF00.0/000.0
YGEL 220300Z AUTO 05013KT 9999 // NCD 28/07 Q1019
YGEL 220230Z AUTO 04014KT 9999 // NCD 27/07 Q1019 RF00.0/000.0
YGEL 220200Z AUTO 04017KT 9999 // NCD 26/07 Q1019
YGEL 220130Z AUTO 05018KT 9999 // NCD 26/08 Q1020 RF00.0/000.0
YGEL 220100Z AUTO 05016KT 9999 // NCD 23/08 Q1020
YGEL 220030Z AUTO 06014KT 9999 // NCD 22/09 Q1020 RF00.0/000.0
YGEL 220000Z AUTO 05013KT 9999 // NCD 20/09 Q1020
YGEL 212330Z AUTO 04011KT 9999 // NCD 19/09 Q1019 RF00.0/000.0
YGEL 212300Z AUTO 03010KT 9999 // NCD 19/09 Q1019
YGEL 212230Z AUTO 05010KT 9999 // NCD 19/09 Q1019 RF00.0/000.0
YGEL 212200Z AUTO 04007KT 9999 // NCD 18/09 Q1019
YGEL 212130Z AUTO 05009KT 9999 // NCD 19/09 Q1019 RF00.0/000.0
YGEL 212100Z AUTO 04007KT 9999 // NCD 18/09 Q1019
YGEL 212030Z AUTO 05009KT 9999 // NCD 19/09 Q1019 RF00.0/000.0
YGEL 212000Z AUTO 03008KT 9999 // NCD 19/09 Q1019
YGEL 211930Z AUTO 35005KT 9999 // NCD 17/09 Q1019 RF00.0/000.0
YGEL 211900Z AUTO 35005KT 9999 // NCD 18/09 Q1019
YGEL 211830Z AUTO 34004KT 9999 // NCD 18/09 Q1019 RF00.0/000.0
YGEL 211800Z AUTO 03004KT 280V060 9999 // NCD 19/09 Q1019
YGEL 211730Z AUTO 06006KT 9999 // NCD 20/09 Q1019 RF00.0/000.0
YGEL 211700Z AUTO 07007KT 9999 // NCD 20/09 Q1019
YGEL 211630Z AUTO 19005KT 9999 // NCD 19/09 Q1020 RF00.0/000.0
YGEL 211600Z AUTO 13009KT 9999 // NCD 20/09 Q1020
YGEL 211530Z AUTO 13010KT 9999 // NCD 19/10 Q1020 RF00.0/000.0
YGEL 211500Z AUTO 13006KT 9999 // NCD 17/14 Q1020